createdAt,value
2022-09-15T00:02:18.160Z,5.85
2022-09-15T00:05:03.825Z,5.95
2022-09-15T00:07:49.174Z,7.28
2022-09-15T00:10:34.709Z,8.63
2022-09-15T00:13:21.639Z,6.85
2022-09-15T00:16:08.636Z,7.82
2022-09-15T00:18:54.642Z,7.72
2022-09-15T00:21:41.465Z,6.00
2022-09-15T00:24:26.821Z,6.20
2022-09-15T00:27:12.024Z,6.13
2022-09-15T00:29:57.425Z,6.35
2022-09-15T00:32:42.795Z,7.82
2022-09-15T00:35:28.135Z,8.18
2022-09-15T00:38:14.743Z,6.85
2022-09-15T00:41:00.944Z,8.30
2022-09-15T00:44:02.710Z,8.68
2022-09-15T00:47:15.195Z,7.75
2022-09-15T00:50:06.623Z,8.38
2022-09-15T00:53:05.850Z,8.98
2022-09-15T00:55:52.212Z,10.15
2022-09-15T00:58:45.094Z,6.38
2022-09-15T01:01:31.746Z,6.50
2022-09-15T01:04:17.511Z,5.30
2022-09-15T01:07:05.589Z,5.43
2022-09-15T01:10:00.906Z,8.63
2022-09-15T01:12:46.049Z,6.53
2022-09-15T01:15:40.049Z,9.70
2022-09-15T01:18:53.711Z,5.40
2022-09-15T01:21:42.718Z,5.38
2022-09-15T01:24:55.220Z,9.43
2022-09-15T01:28:11.613Z,6.57
2022-09-15T01:31:23.577Z,8.73
2022-09-15T01:34:15.925Z,8.10
2022-09-15T01:37:06.794Z,5.75
2022-09-15T01:39:53.667Z,5.43
2022-09-15T01:42:41.813Z,5.95
2022-09-15T01:45:32.244Z,5.97
2022-09-15T01:48:21.101Z,5.20
2022-09-15T01:51:07.488Z,5.35
2022-09-15T01:53:53.747Z,4.22
2022-09-15T01:56:40.828Z,4.30
2022-09-15T01:59:26.496Z,3.13
2022-09-15T02:02:44.040Z,3.35
2022-09-15T02:05:36.354Z,3.53
2022-09-15T02:09:12.707Z,3.10
2022-09-15T02:12:07.722Z,3.80
2022-09-15T02:15:03.416Z,4.00
2022-09-15T02:17:54.153Z,3.15
2022-09-15T02:21:03.753Z,2.25
2022-09-15T02:23:54.848Z,2.72
2022-09-15T02:26:42.064Z,2.42
2022-09-15T02:29:28.805Z,2.13
2022-09-15T02:32:16.802Z,3.15
2022-09-15T02:35:06.486Z,2.15
2022-09-15T02:37:52.285Z,3.42
2022-09-15T02:40:41.744Z,1.95
2022-09-15T02:43:26.949Z,2.35
2022-09-15T02:46:13.670Z,1.83
2022-09-15T02:49:00.406Z,3.13
2022-09-15T02:51:45.851Z,3.60
2022-09-15T02:54:31.091Z,1.77
2022-09-15T02:57:16.689Z,2.28
2022-09-15T03:00:14.904Z,2.63
2022-09-15T03:03:00.380Z,3.72
2022-09-15T03:05:45.741Z,2.17
2022-09-15T03:08:31.578Z,4.32
2022-09-15T03:11:19.348Z,2.40
2022-09-15T03:14:06.133Z,3.10
2022-09-15T03:16:51.251Z,2.30
2022-09-15T03:19:36.519Z,3.05
2022-09-15T03:22:21.871Z,2.58
2022-09-15T03:25:07.932Z,2.55
2022-09-15T03:27:53.196Z,2.85
2022-09-15T03:30:38.453Z,3.75
2022-09-15T03:33:24.401Z,3.22
2022-09-15T03:36:09.973Z,3.83
2022-09-15T03:38:59.029Z,2.97
2022-09-15T03:41:44.169Z,2.42
2022-09-15T03:44:29.526Z,2.65
2022-09-15T03:47:15.309Z,2.92
2022-09-15T03:50:00.396Z,1.92
2022-09-15T03:52:46.470Z,1.88
2022-09-15T03:55:31.819Z,1.55
2022-09-15T03:58:18.462Z,1.73
2022-09-15T04:01:04.471Z,1.58
2022-09-15T04:03:51.501Z,1.17
2022-09-15T04:06:37.718Z,1.38
2022-09-15T04:09:23.313Z,1.33
2022-09-15T04:12:08.451Z,1.88
2022-09-15T04:14:54.021Z,2.80
2022-09-15T04:17:38.997Z,2.85
2022-09-15T04:20:24.483Z,6.30
2022-09-15T04:23:10.502Z,2.85
2022-09-15T04:26:00.690Z,2.17
2022-09-15T04:28:46.190Z,1.30
2022-09-15T04:31:33.035Z,1.23
2022-09-15T04:34:18.627Z,1.00
2022-09-15T04:37:04.012Z,0.60
2022-09-15T04:39:49.594Z,1.20
2022-09-15T04:42:34.885Z,0.55
2022-09-15T04:45:20.335Z,0.90
2022-09-15T04:48:05.703Z,0.20
2022-09-15T04:50:51.644Z,1.05
2022-09-15T04:53:37.206Z,0.60
2022-09-15T04:56:25.641Z,0.75
2022-09-15T04:59:16.037Z,0.85
2022-09-15T05:02:01.474Z,0.35
2022-09-15T05:04:49.078Z,0.50
2022-09-15T05:07:34.352Z,1.00
2022-09-15T05:10:20.192Z,0.65
2022-09-15T05:13:05.714Z,1.85
2022-09-15T05:15:50.949Z,1.15
2022-09-15T05:18:36.315Z,1.88
2022-09-15T05:21:23.009Z,2.20
2022-09-15T05:24:08.308Z,2.58
2022-09-15T05:26:53.532Z,1.52
2022-09-15T05:29:39.057Z,1.90
2022-09-15T05:32:24.496Z,2.53
2022-09-15T05:35:09.932Z,1.80
2022-09-15T05:37:55.405Z,2.25
2022-09-15T05:40:40.763Z,5.13
2022-09-15T05:43:26.333Z,1.58
2022-09-15T05:46:12.305Z,1.38
2022-09-15T05:48:58.350Z,1.88
2022-09-15T05:51:43.838Z,3.05
2022-09-15T05:54:29.124Z,2.22
2022-09-15T05:57:14.562Z,5.22
2022-09-15T05:59:59.985Z,1.92
2022-09-15T06:02:45.339Z,3.08
2022-09-15T06:05:30.961Z,1.38
2022-09-15T06:08:16.623Z,1.80
2022-09-15T06:11:10.647Z,2.72
2022-09-15T06:13:58.473Z,1.95
2022-09-15T06:16:43.944Z,3.67
2022-09-15T06:19:29.172Z,2.08
2022-09-15T06:22:15.001Z,2.40
2022-09-15T06:25:00.031Z,2.67
2022-09-15T06:27:45.493Z,3.33
2022-09-15T06:30:31.010Z,2.17
2022-09-15T06:33:16.452Z,3.08
2022-09-15T06:36:03.015Z,2.72
2022-09-15T06:38:48.483Z,2.38
2022-09-15T06:41:52.842Z,3.65
2022-09-15T06:44:38.607Z,2.47
2022-09-15T06:47:23.904Z,2.85
2022-09-15T06:50:09.606Z,2.25
2022-09-15T06:52:55.060Z,3.45
2022-09-15T06:55:40.428Z,3.05
2022-09-15T06:58:25.759Z,2.50
2022-09-15T07:01:19.755Z,2.95
2022-09-15T07:04:08.430Z,2.80
2022-09-15T07:06:53.606Z,2.65
2022-09-15T07:09:41.357Z,3.22
2022-09-15T07:12:27.106Z,2.92
2022-09-15T07:15:12.433Z,4.20
2022-09-15T07:17:59.253Z,2.35
2022-09-15T07:20:44.488Z,2.33
2022-09-15T07:23:30.384Z,2.17
2022-09-15T07:26:24.131Z,1.85
2022-09-15T07:29:09.932Z,1.80
2022-09-15T07:31:55.083Z,7.43
2022-09-15T07:34:40.356Z,1.92
2022-09-15T07:37:25.595Z,3.88
2022-09-15T07:40:12.010Z,2.35
2022-09-15T07:42:57.049Z,1.65
2022-09-15T07:45:42.675Z,2.13
2022-09-15T07:48:28.307Z,2.50
2022-09-15T07:51:15.200Z,2.10
2022-09-15T07:54:00.398Z,2.13
2022-09-15T07:56:45.775Z,3.50
2022-09-15T07:59:31.660Z,4.07
2022-09-15T08:02:18.779Z,3.25
2022-09-15T08:05:04.214Z,3.92
2022-09-15T08:07:50.326Z,1.65
2022-09-15T08:10:38.181Z,3.13
2022-09-15T08:13:24.292Z,2.00
2022-09-15T08:16:12.730Z,3.05
2022-09-15T08:18:58.857Z,3.55
2022-09-15T08:21:43.993Z,5.35
2022-09-15T08:24:29.385Z,4.55
2022-09-15T08:27:14.780Z,4.78
2022-09-15T08:30:00.036Z,11.70
2022-09-15T08:32:46.562Z,4.43
2022-09-15T08:35:32.554Z,7.43
2022-09-15T08:38:18.098Z,11.48
2022-09-15T08:41:06.419Z,7.65
2022-09-15T08:44:27.618Z,7.00
2022-09-15T08:47:25.096Z,6.18
2022-09-15T08:50:28.319Z,6.05
2022-09-15T08:53:28.025Z,5.25
2022-09-15T08:56:18.237Z,6.22
2022-09-15T08:59:04.220Z,13.57
2022-09-15T09:02:12.961Z,7.10
2022-09-15T09:05:03.178Z,10.02
2022-09-15T09:08:21.918Z,6.75
2022-09-15T09:11:48.504Z,8.60
2022-09-15T09:14:52.253Z,10.73
2022-09-15T09:17:58.456Z,9.65
2022-09-15T09:21:07.634Z,6.45
2022-09-15T09:24:14.225Z,10.77
2022-09-15T09:26:59.589Z,7.40
2022-09-15T09:29:50.092Z,7.75
2022-09-15T09:32:44.992Z,10.20
2022-09-15T09:35:51.544Z,7.15
2022-09-15T09:38:39.644Z,8.48
2022-09-15T09:41:35.455Z,9.10
2022-09-15T09:44:21.415Z,10.60
2022-09-15T09:47:07.647Z,11.23
2022-09-15T09:49:52.806Z,10.15
2022-09-15T09:52:39.228Z,6.55
2022-09-15T09:55:27.612Z,8.90
2022-09-15T09:58:18.307Z,14.30
2022-09-15T10:01:17.337Z,9.95
2022-09-15T10:04:19.256Z,11.23
2022-09-15T10:07:05.136Z,10.65
2022-09-15T10:10:01.630Z,12.70
2022-09-15T10:12:48.332Z,8.23
2022-09-15T10:15:35.221Z,10.40
2022-09-15T10:18:35.686Z,8.93
2022-09-15T10:21:24.577Z,5.95
2022-09-15T10:24:35.626Z,7.53
2022-09-15T10:27:36.753Z,8.38
2022-09-15T10:30:22.504Z,14.27
2022-09-15T10:33:27.977Z,7.50
2022-09-15T10:36:19.272Z,10.82
2022-09-15T10:39:23.756Z,8.27
2022-09-15T10:42:18.968Z,9.00
2022-09-15T10:45:19.325Z,12.05
2022-09-15T10:48:29.797Z,12.38
2022-09-15T10:51:25.050Z,7.47
2022-09-15T10:54:30.356Z,9.75
2022-09-15T10:57:43.636Z,5.72
2022-09-15T11:00:44.375Z,7.13
2022-09-15T11:04:25.059Z,10.35
2022-09-15T11:07:42.708Z,7.72
2022-09-15T11:10:43.532Z,8.85
2022-09-15T11:13:36.107Z,6.75
2022-09-15T11:16:46.181Z,10.05
2022-09-15T11:20:16.019Z,10.15
2022-09-15T11:23:40.064Z,7.68
2022-09-15T11:26:40.059Z,5.50
2022-09-15T11:29:39.494Z,5.35
2022-09-15T11:32:46.584Z,7.35
2022-09-15T11:35:34.673Z,7.88
2022-09-15T11:39:07.651Z,9.07
2022-09-15T11:41:59.561Z,6.03
2022-09-15T11:44:47.394Z,11.25
2022-09-15T11:47:44.280Z,9.05
2022-09-15T11:50:41.421Z,6.93
2022-09-15T11:53:44.118Z,14.07
2022-09-15T11:59:40.237Z,10.00
2022-09-15T12:02:51.309Z,10.82
2022-09-15T12:05:51.480Z,6.28
2022-09-15T12:08:40.325Z,5.15
2022-09-15T12:11:28.697Z,6.22
2022-09-15T12:14:28.446Z,5.88
2022-09-15T12:17:34.797Z,5.78
2022-09-15T12:20:28.351Z,6.78
2022-09-15T12:23:33.912Z,9.15
2022-09-15T12:26:25.132Z,6.65
2022-09-15T12:29:22.414Z,9.07
2022-09-15T12:32:22.090Z,11.55
2022-09-15T12:35:16.075Z,8.10
2022-09-15T12:38:01.343Z,7.43
2022-09-15T12:40:57.513Z,5.43
2022-09-15T12:43:53.182Z,4.43
2022-09-15T12:46:38.792Z,7.88
2022-09-15T12:49:30.984Z,10.02
2022-09-15T12:52:19.390Z,7.25
2022-09-15T12:55:05.205Z,7.85
2022-09-15T12:57:52.663Z,6.32
2022-09-15T13:00:54.853Z,7.28
2022-09-15T13:03:45.547Z,5.90
2022-09-15T13:06:34.544Z,5.05
2022-09-15T13:09:28.094Z,6.13
2022-09-15T13:12:17.603Z,5.35
2022-09-15T13:15:06.820Z,4.82
2022-09-15T13:17:54.490Z,7.72
2022-09-15T13:20:48.715Z,6.47
2022-09-15T13:23:41.395Z,5.50
2022-09-15T13:26:28.986Z,8.35
2022-09-15T13:29:16.073Z,6.35
2022-09-15T13:32:40.214Z,9.77
2022-09-15T13:36:04.028Z,10.48
2022-09-15T13:39:20.591Z,10.57
2022-09-15T13:42:27.712Z,8.13
2022-09-15T13:45:42.034Z,4.32
2022-09-15T13:48:33.186Z,6.60
2022-09-15T13:51:29.902Z,5.37
2022-09-15T13:54:19.642Z,6.85
2022-09-15T13:57:04.849Z,4.40
2022-09-15T13:59:50.805Z,6.53
2022-09-15T14:02:36.354Z,5.15
2022-09-15T14:05:23.977Z,4.85
2022-09-15T14:08:20.245Z,3.45
2022-09-15T14:11:14.612Z,3.33
2022-09-15T14:14:03.365Z,3.25
2022-09-15T14:16:50.950Z,2.17
2022-09-15T14:19:38.716Z,3.25
2022-09-15T14:22:33.025Z,3.55
2022-09-15T14:25:20.791Z,2.88
2022-09-15T14:28:07.176Z,2.25
2022-09-15T14:30:52.784Z,2.88
2022-09-15T14:33:40.714Z,3.13
2022-09-15T14:36:29.884Z,3.25
2022-09-15T14:39:21.567Z,4.05
2022-09-15T14:42:22.521Z,3.83
2022-09-15T14:48:17.645Z,5.82
2022-09-15T14:51:08.880Z,5.03
2022-09-15T14:53:58.012Z,1.92
2022-09-15T14:56:43.507Z,2.85
2022-09-15T14:59:44.527Z,4.47
2022-09-15T15:02:53.472Z,3.13
2022-09-15T15:05:54.658Z,2.63
2022-09-15T15:08:48.200Z,4.28
2022-09-15T15:11:35.881Z,2.47
2022-09-15T15:17:27.463Z,3.38
2022-09-15T15:20:17.076Z,4.20
2022-09-15T15:23:22.255Z,2.97
2022-09-15T15:26:34.015Z,4.07
2022-09-15T15:29:37.542Z,3.88
2022-09-15T15:32:27.889Z,4.78
2022-09-15T15:35:16.023Z,4.80
2022-09-15T15:38:09.496Z,3.03
2022-09-15T15:41:04.387Z,4.78
2022-09-15T15:44:07.983Z,3.08
2022-09-15T15:47:02.418Z,3.67
2022-09-15T15:50:11.696Z,5.45
2022-09-15T15:52:53.075Z,4.47
2022-09-15T15:55:40.842Z,2.45
2022-09-15T15:58:26.345Z,3.10
2022-09-15T16:01:12.033Z,2.60
2022-09-15T16:03:57.637Z,5.28
2022-09-15T16:06:44.413Z,2.30
2022-09-15T16:09:29.829Z,3.58
2022-09-15T16:12:16.472Z,3.00
2022-09-15T16:15:01.934Z,4.80
2022-09-15T16:17:48.955Z,10.52
2022-09-15T16:20:43.957Z,6.45
2022-09-15T16:23:29.351Z,5.18
2022-09-15T16:26:17.606Z,5.22
2022-09-15T16:29:02.857Z,4.50
2022-09-15T16:31:48.619Z,6.53
2022-09-15T16:34:33.818Z,6.95
2022-09-15T16:37:19.141Z,8.00
2022-09-15T16:40:05.164Z,5.03
2022-09-15T16:42:50.577Z,6.45
2022-09-15T16:45:40.563Z,5.18
2022-09-15T16:48:27.220Z,7.75
2022-09-15T16:51:34.488Z,5.63
2022-09-15T16:54:20.364Z,5.15
2022-09-15T16:57:05.425Z,5.15
2022-09-15T16:59:50.798Z,6.38
2022-09-15T17:02:36.133Z,2.47
2022-09-15T17:05:32.482Z,6.55
2022-09-15T17:08:33.381Z,5.53
2022-09-15T17:11:24.863Z,5.30
2022-09-15T17:14:43.809Z,7.45
2022-09-15T17:17:30.994Z,5.43
2022-09-15T17:20:20.371Z,5.40
2022-09-15T17:23:28.780Z,3.88
2022-09-15T17:26:27.636Z,4.07
2022-09-15T17:29:19.013Z,4.25
2022-09-15T17:32:08.835Z,2.72
2022-09-15T17:34:56.738Z,3.78
2022-09-15T17:37:45.601Z,2.58
2022-09-15T17:40:37.049Z,3.30
2022-09-15T17:43:30.680Z,3.08
2022-09-15T17:46:16.611Z,2.78
2022-09-15T17:49:04.621Z,6.03
2022-09-15T17:51:53.038Z,3.85
2022-09-15T17:54:44.063Z,2.80
2022-09-15T17:57:34.854Z,6.53
2022-09-15T18:00:22.092Z,7.43
2022-09-15T18:03:29.816Z,6.88
2022-09-15T18:06:15.680Z,13.02
2022-09-15T18:09:02.698Z,7.30
2022-09-15T18:14:47.792Z,4.93
2022-09-15T18:17:44.672Z,9.77
2022-09-15T18:20:33.863Z,3.28
2022-09-15T18:23:22.716Z,4.03
2022-09-15T18:26:14.303Z,2.33
2022-09-15T18:29:03.153Z,4.10
2022-09-15T18:31:49.040Z,4.03
2022-09-15T18:34:34.473Z,6.63
2022-09-15T18:37:19.794Z,3.08
2022-09-15T18:40:08.700Z,4.90
2022-09-15T18:42:54.191Z,5.35
2022-09-15T18:45:41.040Z,3.30
2022-09-15T18:48:26.201Z,6.85
2022-09-15T18:51:19.477Z,5.97
2022-09-15T18:54:08.963Z,3.33
2022-09-15T18:56:54.412Z,3.35
2022-09-15T18:59:39.644Z,3.35
2022-09-15T19:02:25.191Z,3.95
2022-09-15T19:05:11.508Z,4.07
2022-09-15T19:07:57.389Z,3.30
2022-09-15T19:10:44.103Z,3.22
2022-09-15T19:13:29.798Z,5.28
2022-09-15T19:16:15.314Z,3.75
2022-09-15T19:19:00.616Z,2.38
2022-09-15T19:21:46.020Z,7.07
2022-09-15T19:24:33.987Z,3.90
2022-09-15T19:27:19.515Z,5.75
2022-09-15T19:30:06.018Z,4.95
2022-09-15T19:32:51.457Z,3.30
2022-09-15T19:35:36.598Z,4.18
2022-09-15T19:38:21.922Z,3.08
2022-09-15T19:41:13.998Z,5.70
2022-09-15T19:44:01.756Z,4.05
2022-09-15T19:46:46.991Z,2.65
2022-09-15T19:49:32.526Z,3.58
2022-09-15T19:52:18.351Z,5.47
2022-09-15T19:55:06.590Z,6.43
2022-09-15T19:57:52.021Z,7.47
2022-09-15T20:00:37.940Z,4.55
2022-09-15T20:03:24.809Z,3.33
2022-09-15T20:06:09.899Z,9.65
2022-09-15T20:08:58.020Z,8.77
2022-09-15T20:11:43.480Z,4.65
2022-09-15T20:14:31.756Z,2.05
2022-09-15T20:17:17.706Z,4.35
2022-09-15T20:20:03.195Z,4.70
2022-09-15T20:22:48.575Z,3.20
2022-09-15T20:25:34.079Z,5.18
2022-09-15T20:28:19.479Z,5.97
2022-09-15T20:31:10.661Z,4.47
2022-09-15T20:33:56.101Z,4.35
2022-09-15T20:36:41.287Z,2.53
2022-09-15T20:39:26.906Z,5.15
2022-09-15T20:42:12.233Z,2.80
2022-09-15T20:44:57.487Z,2.95
2022-09-15T20:47:42.917Z,8.18
2022-09-15T20:50:29.356Z,3.72
2022-09-15T20:53:14.752Z,6.57
2022-09-15T20:56:00.298Z,2.63
2022-09-15T20:58:45.478Z,5.03
2022-09-15T21:01:36.964Z,4.93
2022-09-15T21:04:22.315Z,5.40
2022-09-15T21:07:07.745Z,3.80
2022-09-15T21:09:53.160Z,4.93
2022-09-15T21:12:38.463Z,3.45
2022-09-15T21:15:23.938Z,6.55
2022-09-15T21:18:09.333Z,5.07
2022-09-15T21:20:59.687Z,4.63
2022-09-15T21:23:50.225Z,3.13
2022-09-15T21:27:01.006Z,4.13
2022-09-15T21:29:46.625Z,3.25
2022-09-15T21:32:33.014Z,4.28
2022-09-15T21:35:18.315Z,6.68
2022-09-15T21:38:03.695Z,3.90
2022-09-15T21:40:56.268Z,10.65
2022-09-15T21:43:43.165Z,3.58
2022-09-15T21:46:30.747Z,8.35
2022-09-15T21:49:17.940Z,4.38
2022-09-15T21:52:03.292Z,4.32
2022-09-15T21:54:49.068Z,5.03
2022-09-15T21:57:34.453Z,4.70
2022-09-15T22:00:19.704Z,5.00
2022-09-15T22:03:05.064Z,4.43
2022-09-15T22:05:51.742Z,5.47
2022-09-15T22:08:38.137Z,7.13
2022-09-15T22:11:23.772Z,3.88
2022-09-15T22:14:09.820Z,4.38
2022-09-15T22:16:55.361Z,12.70
2022-09-15T22:19:40.799Z,4.07
2022-09-15T22:22:26.312Z,5.35
2022-09-15T22:25:12.200Z,5.88
2022-09-15T22:27:57.477Z,7.50
2022-09-15T22:30:43.129Z,4.90
2022-09-15T22:33:29.176Z,6.13
2022-09-15T22:36:17.071Z,5.82
2022-09-15T22:39:06.545Z,5.63
2022-09-15T22:41:51.936Z,11.07
2022-09-15T22:44:37.212Z,4.20
2022-09-15T22:47:22.839Z,3.72
2022-09-15T22:50:08.571Z,5.47
2022-09-15T22:52:55.719Z,7.75
2022-09-15T22:55:41.331Z,4.65
2022-09-15T22:58:26.266Z,4.47
2022-09-15T23:01:17.958Z,4.95
2022-09-15T23:04:03.743Z,6.68
2022-09-15T23:06:49.124Z,5.88
2022-09-15T23:09:34.425Z,5.93
2022-09-15T23:12:19.992Z,6.22
2022-09-15T23:15:06.522Z,8.43
2022-09-15T23:17:51.930Z,5.15
2022-09-15T23:20:39.390Z,7.88
2022-09-15T23:23:25.128Z,8.25
2022-09-15T23:26:12.185Z,4.50
2022-09-15T23:28:57.508Z,7.55
2022-09-15T23:31:42.841Z,5.35
2022-09-15T23:34:28.188Z,8.75
2022-09-15T23:37:13.565Z,6.80
2022-09-15T23:39:58.944Z,7.97
2022-09-15T23:42:44.245Z,7.75
2022-09-15T23:45:29.532Z,6.40
2022-09-15T23:48:14.926Z,7.10
2022-09-15T23:51:00.652Z,11.13
2022-09-15T23:53:46.147Z,7.72
2022-09-15T23:56:32.433Z,6.75
2022-09-15T23:59:17.697Z,8.73
